createdAt,value
2023-04-02T00:00:16.389Z,6.38
2023-04-02T00:03:14.110Z,5.28
2023-04-02T00:06:40.770Z,5.75
2023-04-02T00:09:38.799Z,4.70
2023-04-02T00:12:37.339Z,6.15
2023-04-02T00:15:35.693Z,5.18
2023-04-02T00:18:37.709Z,6.10
2023-04-02T00:21:39.894Z,5.45
2023-04-02T00:24:40.434Z,5.72
2023-04-02T00:27:38.109Z,5.75
2023-04-02T00:30:37.312Z,4.65
2023-04-02T00:33:35.808Z,4.95
2023-04-02T00:36:35.321Z,6.50
2023-04-02T00:39:42.519Z,7.03
2023-04-02T00:42:41.872Z,4.70
2023-04-02T00:45:39.838Z,5.95
2023-04-02T00:48:46.366Z,5.30
2023-04-02T00:51:54.110Z,5.68
2023-04-02T00:54:59.103Z,5.78
2023-04-02T00:57:58.412Z,5.00
2023-04-02T01:00:57.292Z,6.15
2023-04-02T01:03:58.661Z,4.25
2023-04-02T01:06:57.261Z,5.95
2023-04-02T01:10:18.867Z,5.60
2023-04-02T01:13:28.376Z,5.73
2023-04-02T01:16:50.828Z,5.68
2023-04-02T01:20:14.763Z,5.75
2023-04-02T01:23:31.466Z,5.68
2023-04-02T01:26:45.386Z,5.25
2023-04-02T01:29:59.247Z,5.20
2023-04-02T01:32:57.731Z,5.38
2023-04-02T01:36:18.216Z,4.55
2023-04-02T01:39:41.993Z,5.35
2023-04-02T01:42:52.788Z,5.05
2023-04-02T01:45:51.215Z,5.60
2023-04-02T01:48:49.040Z,5.38
2023-04-02T01:51:53.586Z,6.43
2023-04-02T01:54:53.268Z,6.13
2023-04-02T01:57:54.518Z,5.30
2023-04-02T02:00:58.482Z,5.82
2023-04-02T02:03:56.714Z,4.93
2023-04-02T02:06:54.729Z,5.72
2023-04-02T02:09:53.040Z,5.25
2023-04-02T02:12:51.240Z,5.22
2023-04-02T02:15:49.284Z,4.95
2023-04-02T02:18:51.852Z,4.97
2023-04-02T02:21:54.062Z,5.63
2023-04-02T02:24:51.894Z,5.68
2023-04-02T02:28:20.249Z,5.38
2023-04-02T02:31:29.643Z,6.28
2023-04-02T02:34:36.840Z,6.00
2023-04-02T02:37:42.789Z,5.80
2023-04-02T02:40:46.104Z,5.03
2023-04-02T02:43:50.983Z,5.00
2023-04-02T02:46:59.382Z,5.05
2023-04-02T02:50:02.366Z,4.60
2023-04-02T02:53:04.961Z,5.28
2023-04-02T02:56:03.073Z,6.55
2023-04-02T02:59:02.403Z,5.78
2023-04-02T03:02:01.694Z,4.68
2023-04-02T03:04:59.921Z,5.63
2023-04-02T03:07:58.994Z,5.47
2023-04-02T03:11:07.522Z,4.95
2023-04-02T03:14:19.075Z,6.03
2023-04-02T03:17:27.435Z,5.53
2023-04-02T03:20:44.458Z,5.65
2023-04-02T03:23:51.955Z,7.57
2023-04-02T03:26:56.008Z,6.80
2023-04-02T03:30:24.770Z,7.05
2023-04-02T03:33:28.655Z,7.40
2023-04-02T03:36:35.214Z,6.60
2023-04-02T03:39:42.032Z,7.22
2023-04-02T03:42:51.878Z,6.60
2023-04-02T03:45:53.918Z,8.02
2023-04-02T03:48:56.700Z,7.63
2023-04-02T03:52:03.371Z,8.15
2023-04-02T03:55:03.499Z,6.47
2023-04-02T03:58:23.294Z,7.40
2023-04-02T04:01:30.394Z,6.72
2023-04-02T04:04:30.974Z,6.22
2023-04-02T04:07:34.171Z,8.98
2023-04-02T04:10:32.585Z,8.38
2023-04-02T04:13:39.508Z,7.18
2023-04-02T04:17:07.832Z,7.07
2023-04-02T04:20:24.631Z,7.70
2023-04-02T04:23:44.772Z,7.75
2023-04-02T04:26:55.835Z,7.85
2023-04-02T04:30:23.558Z,7.07
2023-04-02T04:33:42.435Z,8.45
2023-04-02T04:36:48.634Z,6.85
2023-04-02T04:39:51.854Z,8.00
2023-04-02T04:42:52.473Z,7.65
2023-04-02T04:46:08.699Z,7.10
2023-04-02T04:49:18.269Z,9.18
2023-04-02T04:52:25.043Z,7.95
2023-04-02T04:55:35.689Z,9.60
2023-04-02T04:58:50.645Z,9.63
2023-04-02T05:01:58.689Z,9.70
2023-04-02T05:04:57.487Z,9.07
2023-04-02T05:08:06.720Z,8.48
2023-04-02T05:11:15.740Z,9.55
2023-04-02T05:14:38.495Z,10.90
2023-04-02T05:17:39.294Z,9.43
2023-04-02T05:20:48.189Z,9.18
2023-04-02T05:23:52.591Z,8.60
2023-04-02T05:26:52.705Z,9.02
2023-04-02T05:30:04.281Z,8.80
2023-04-02T05:33:08.554Z,9.20
2023-04-02T05:36:28.598Z,8.43
2023-04-02T05:39:28.082Z,9.85
2023-04-02T05:42:32.601Z,8.52
2023-04-02T05:45:37.875Z,8.43
2023-04-02T05:48:43.911Z,8.48
2023-04-02T05:51:49.616Z,8.48
2023-04-02T05:55:01.074Z,9.32
2023-04-02T05:58:29.522Z,9.05
2023-04-02T06:01:29.930Z,8.57
2023-04-02T06:04:46.930Z,9.18
2023-04-02T06:08:00.594Z,8.60
2023-04-02T06:11:24.101Z,9.45
2023-04-02T06:14:21.997Z,9.50
2023-04-02T06:17:21.800Z,8.77
2023-04-02T06:20:21.786Z,8.05
2023-04-02T06:23:19.652Z,7.40
2023-04-02T06:26:48.220Z,10.13
2023-04-02T06:29:49.128Z,10.93
2023-04-02T06:32:48.205Z,10.38
2023-04-02T06:35:49.353Z,9.68
2023-04-02T06:38:49.837Z,8.57
2023-04-02T06:41:48.206Z,10.38
2023-04-02T06:44:46.467Z,8.98
2023-04-02T06:47:47.660Z,9.43
2023-04-02T06:50:50.997Z,10.52
2023-04-02T06:56:48.152Z,7.95
2023-04-02T06:59:46.540Z,9.60
2023-04-02T07:02:44.887Z,10.23
2023-04-02T07:05:43.026Z,10.63
2023-04-02T07:08:41.234Z,9.48
2023-04-02T07:11:39.179Z,9.38
2023-04-02T07:14:37.133Z,9.45
2023-04-02T07:17:34.871Z,9.68
2023-04-02T07:20:38.098Z,11.40
2023-04-02T07:23:38.192Z,10.52
2023-04-02T07:26:36.077Z,10.13
2023-04-02T07:29:33.835Z,10.52
2023-04-02T07:32:32.052Z,12.05
2023-04-02T07:35:30.302Z,10.73
2023-04-02T07:38:28.260Z,10.90
2023-04-02T07:41:27.168Z,10.60
2023-04-02T07:44:25.436Z,12.02
2023-04-02T07:47:23.271Z,11.10
2023-04-02T07:50:21.118Z,12.27
2023-04-02T07:53:35.432Z,11.25
2023-04-02T07:56:33.142Z,11.02
2023-04-02T07:59:31.357Z,11.52
2023-04-02T08:02:29.216Z,11.18
2023-04-02T08:05:28.394Z,11.68
2023-04-02T08:08:27.202Z,12.80
2023-04-02T08:11:25.558Z,11.43
2023-04-02T08:14:23.415Z,10.82
2023-04-02T08:17:21.866Z,12.40
2023-04-02T08:20:22.613Z,12.52
2023-04-02T08:23:21.388Z,12.05
2023-04-02T08:26:19.843Z,12.98
2023-04-02T08:29:17.959Z,13.35
2023-04-02T08:32:16.907Z,12.13
2023-04-02T08:35:18.277Z,11.15
2023-04-02T08:38:18.635Z,11.98
2023-04-02T08:41:31.745Z,13.00
2023-04-02T08:44:37.166Z,13.13
2023-04-02T08:47:41.826Z,12.65
2023-04-02T08:50:42.806Z,13.73
2023-04-02T08:53:42.825Z,13.23
2023-04-02T08:56:50.295Z,11.23
2023-04-02T08:59:48.783Z,11.45
2023-04-02T09:02:56.815Z,12.20
2023-04-02T09:05:55.546Z,11.57
2023-04-02T09:08:54.891Z,11.98
2023-04-02T09:12:04.715Z,12.35
2023-04-02T09:15:05.662Z,11.68
2023-04-02T09:18:17.155Z,12.07
2023-04-02T09:21:39.565Z,12.93
2023-04-02T09:27:37.349Z,13.07
2023-04-02T09:31:07.127Z,11.75
2023-04-02T09:34:33.225Z,12.65
2023-04-02T09:37:30.979Z,11.30
2023-04-02T09:40:33.206Z,11.88
2023-04-02T09:43:36.400Z,10.90
2023-04-02T09:46:35.098Z,11.85
2023-04-02T09:49:38.699Z,11.35
2023-04-02T09:52:36.985Z,11.68
2023-04-02T09:55:35.268Z,10.38
2023-04-02T09:58:33.249Z,11.85
2023-04-02T10:01:40.385Z,12.18
2023-04-02T10:04:47.831Z,12.75
2023-04-02T10:07:49.482Z,11.27
2023-04-02T10:10:53.811Z,10.70
2023-04-02T10:14:26.648Z,11.55
2023-04-02T10:17:32.843Z,10.98
2023-04-02T10:20:36.326Z,12.40
2023-04-02T10:23:40.062Z,10.82
2023-04-02T10:27:03.420Z,9.90
2023-04-02T10:30:16.196Z,11.13
2023-04-02T10:33:29.064Z,10.32
2023-04-02T10:39:48.151Z,10.65
2023-04-02T10:42:56.994Z,10.93
2023-04-02T10:46:13.290Z,11.00
2023-04-02T10:49:22.884Z,10.75
2023-04-02T10:52:56.618Z,9.52
2023-04-02T10:56:04.184Z,12.75
2023-04-02T10:59:28.277Z,13.77
2023-04-02T11:02:30.438Z,11.77
2023-04-02T11:05:44.584Z,10.45
2023-04-02T11:08:49.077Z,10.27
2023-04-02T11:11:52.527Z,10.50
2023-04-02T11:14:51.918Z,11.45
2023-04-02T11:17:50.506Z,11.85
2023-04-02T11:20:51.450Z,11.68
2023-04-02T11:24:06.413Z,11.63
2023-04-02T11:27:12.567Z,11.85
2023-04-02T11:30:27.848Z,10.98
2023-04-02T11:33:36.560Z,11.80
2023-04-02T11:36:51.704Z,15.10
2023-04-02T11:40:00.367Z,11.13
2023-04-02T11:43:36.555Z,11.90
2023-04-02T11:46:41.558Z,11.00
2023-04-02T11:49:41.852Z,10.15
2023-04-02T11:53:06.193Z,9.90
2023-04-02T11:56:50.393Z,8.90
2023-04-02T12:00:09.505Z,10.13
2023-04-02T12:03:45.002Z,10.38
2023-04-02T12:06:48.661Z,9.70
2023-04-02T12:09:48.877Z,10.80
2023-04-02T12:12:47.787Z,9.77
2023-04-02T12:15:50.240Z,9.98
2023-04-02T12:18:56.724Z,10.55
2023-04-02T12:21:54.915Z,10.10
2023-04-02T12:24:55.489Z,9.35
2023-04-02T12:28:11.458Z,11.15
2023-04-02T12:31:09.596Z,10.43
2023-04-02T12:34:19.491Z,10.00
2023-04-02T12:37:29.442Z,10.15
2023-04-02T12:40:27.976Z,10.07
2023-04-02T12:43:30.851Z,9.50
2023-04-02T12:46:30.586Z,9.70
2023-04-02T12:49:45.203Z,8.95
2023-04-02T12:52:49.761Z,9.05
2023-04-02T12:55:49.628Z,9.68
2023-04-02T12:58:57.774Z,9.45
2023-04-02T13:02:03.842Z,9.75
2023-04-02T13:05:03.032Z,9.02
2023-04-02T13:08:01.885Z,10.73
2023-04-02T13:11:05.440Z,10.00
2023-04-02T13:14:06.563Z,8.75
2023-04-02T13:17:04.419Z,9.98
2023-04-02T13:20:58.048Z,9.38
2023-04-02T13:23:56.153Z,10.30
2023-04-02T13:26:59.358Z,10.20
2023-04-02T13:29:57.158Z,10.07
2023-04-02T13:32:55.458Z,10.57
2023-04-02T13:35:53.674Z,10.50
2023-04-02T13:38:51.554Z,10.95
2023-04-02T13:42:12.291Z,11.07
2023-04-02T13:45:30.325Z,10.80
2023-04-02T13:48:29.457Z,12.50
2023-04-02T13:52:06.354Z,14.13
2023-04-02T13:55:05.109Z,13.95
2023-04-02T13:58:04.196Z,16.27
2023-04-02T14:01:02.616Z,16.38
2023-04-02T14:04:01.040Z,16.30
2023-04-02T14:07:29.898Z,18.38
2023-04-02T14:10:59.225Z,17.83
2023-04-02T14:14:34.279Z,17.58
2023-04-02T14:18:10.709Z,16.48
2023-04-02T14:21:15.701Z,14.52
2023-04-02T14:24:37.350Z,16.17
2023-04-02T14:27:49.864Z,16.03
2023-04-02T14:31:16.555Z,18.42
2023-04-02T14:34:29.692Z,17.52
2023-04-02T14:37:51.860Z,17.88
2023-04-02T14:40:56.529Z,19.50
2023-04-02T14:44:08.212Z,19.02
2023-04-02T14:47:37.475Z,18.17
2023-04-02T14:50:43.744Z,18.45
2023-04-02T14:54:10.538Z,18.50
2023-04-02T14:57:24.871Z,18.63
2023-04-02T15:00:28.528Z,19.20
2023-04-02T15:03:35.837Z,19.27
2023-04-02T15:06:45.410Z,16.20
2023-04-02T15:10:02.679Z,18.55
2023-04-02T15:13:05.940Z,17.70
2023-04-02T15:16:17.071Z,16.40
2023-04-02T15:19:20.425Z,16.42
2023-04-02T15:25:48.666Z,16.60
2023-04-02T15:29:33.214Z,16.75
2023-04-02T15:32:37.172Z,15.98
2023-04-02T15:35:56.950Z,15.57
2023-04-02T15:39:22.959Z,14.93
2023-04-02T15:42:21.124Z,15.15
2023-04-02T15:45:58.441Z,13.43
2023-04-02T15:49:35.892Z,13.80
2023-04-02T15:52:49.870Z,12.73
2023-04-02T15:55:57.742Z,11.93
2023-04-02T15:59:22.054Z,11.82
2023-04-02T16:02:45.318Z,11.98
2023-04-02T16:05:46.690Z,12.68
2023-04-02T16:08:59.223Z,12.80
2023-04-02T16:12:12.138Z,12.70
2023-04-02T16:15:19.592Z,11.85
2023-04-02T16:18:39.299Z,12.30
2023-04-02T16:21:51.725Z,13.20
2023-04-02T16:24:57.892Z,13.05
2023-04-02T16:28:23.494Z,12.80
2023-04-02T16:31:50.783Z,12.70
2023-04-02T16:38:36.181Z,14.02
2023-04-02T16:41:49.146Z,14.05
2023-04-02T16:48:22.221Z,12.35
2023-04-02T16:51:27.264Z,11.70
2023-04-02T16:54:49.830Z,11.00
2023-04-02T17:00:59.338Z,10.27
2023-04-02T17:04:20.134Z,11.50
2023-04-02T17:07:35.095Z,11.00
2023-04-02T17:10:45.673Z,10.00
2023-04-02T17:13:45.775Z,10.98
2023-04-02T17:16:46.578Z,10.25
2023-04-02T17:19:45.944Z,10.60
2023-04-02T17:22:44.247Z,10.23
2023-04-02T17:25:57.269Z,10.75
2023-04-02T17:32:00.871Z,9.60
2023-04-02T17:35:44.006Z,9.65
2023-04-02T17:38:49.898Z,10.02
2023-04-02T17:41:55.508Z,8.93
2023-04-02T17:45:02.615Z,9.20
2023-04-02T17:48:26.629Z,9.05
2023-04-02T17:51:31.146Z,8.50
2023-04-02T17:55:05.627Z,7.82
2023-04-02T17:58:33.283Z,8.02
2023-04-02T18:01:52.329Z,7.43
2023-04-02T18:04:59.262Z,7.88
2023-04-02T18:08:26.709Z,9.18
2023-04-02T18:12:00.434Z,9.02
2023-04-02T18:15:33.048Z,9.73
2023-04-02T18:19:06.894Z,8.18
2023-04-02T18:22:31.923Z,10.63
2023-04-02T18:25:44.582Z,9.07
2023-04-02T18:29:10.358Z,9.07
2023-04-02T18:32:42.222Z,8.77
2023-04-02T18:36:08.143Z,9.40
2023-04-02T18:39:24.268Z,14.13
2023-04-02T18:42:37.220Z,18.23
2023-04-02T18:48:54.391Z,18.85
2023-04-02T18:52:03.172Z,12.50
2023-04-02T18:55:28.739Z,10.40
2023-04-02T18:58:41.726Z,8.63
2023-04-02T19:01:44.253Z,8.80
2023-04-02T19:04:52.608Z,8.70
2023-04-02T19:07:55.245Z,7.50
2023-04-02T19:11:00.603Z,7.78
2023-04-02T19:14:03.780Z,7.28
2023-04-02T19:17:24.610Z,7.90
2023-04-02T19:20:57.631Z,7.57
2023-04-02T19:23:58.240Z,6.72
2023-04-02T19:27:05.802Z,7.47
2023-04-02T19:30:39.719Z,7.78
2023-04-02T19:33:42.904Z,7.95
2023-04-02T19:36:55.779Z,7.68
2023-04-02T19:40:31.953Z,6.55
2023-04-02T19:43:30.375Z,7.72
2023-04-02T19:46:28.850Z,7.30
2023-04-02T19:49:36.075Z,8.10
2023-04-02T19:52:33.933Z,7.75
2023-04-02T19:55:31.770Z,8.32
2023-04-02T19:58:35.228Z,7.63
2023-04-02T20:01:33.010Z,7.10
2023-04-02T20:04:31.037Z,7.25
2023-04-02T20:07:31.124Z,7.20
2023-04-02T20:10:28.908Z,7.38
2023-04-02T20:13:26.909Z,6.90
2023-04-02T20:16:25.311Z,8.68
2023-04-02T20:19:23.327Z,6.65
2023-04-02T20:22:21.665Z,7.18
2023-04-02T20:25:19.370Z,7.25
2023-04-02T20:28:17.543Z,7.95
2023-04-02T20:31:17.966Z,6.50
2023-04-02T20:34:16.532Z,7.25
2023-04-02T20:37:14.576Z,7.88
2023-04-02T20:40:12.441Z,6.78
2023-04-02T20:43:11.168Z,7.63
2023-04-02T20:46:10.986Z,6.28
2023-04-02T20:49:10.063Z,7.22
2023-04-02T20:52:08.175Z,7.63
2023-04-02T20:55:06.973Z,7.95
2023-04-02T20:58:04.663Z,7.60
2023-04-02T21:01:17.677Z,7.90
2023-04-02T21:04:15.988Z,6.45
2023-04-02T21:07:13.845Z,7.05
2023-04-02T21:10:11.869Z,8.00
2023-04-02T21:13:09.708Z,6.90
2023-04-02T21:16:17.934Z,8.02
2023-04-02T21:19:16.071Z,7.60
2023-04-02T21:22:13.942Z,7.30
2023-04-02T21:25:12.600Z,6.72
2023-04-02T21:28:10.308Z,7.13
2023-04-02T21:31:17.119Z,6.05
2023-04-02T21:34:17.218Z,6.78
2023-04-02T21:37:15.088Z,6.40
2023-04-02T21:40:13.112Z,6.60
2023-04-02T21:43:10.990Z,6.28
2023-04-02T21:46:09.079Z,6.85
2023-04-02T21:49:10.820Z,6.75
2023-04-02T21:52:08.891Z,6.78
2023-04-02T21:55:06.840Z,7.28
2023-04-02T21:58:04.647Z,7.15
2023-04-02T22:01:03.419Z,6.72
2023-04-02T22:04:04.268Z,6.15
2023-04-02T22:07:02.513Z,6.43
2023-04-02T22:10:00.391Z,5.68
2023-04-02T22:12:58.099Z,5.82
2023-04-02T22:16:05.684Z,6.07
2023-04-02T22:19:07.709Z,5.32
2023-04-02T22:22:05.582Z,5.47
2023-04-02T22:25:04.037Z,5.60
2023-04-02T22:28:01.880Z,5.82
2023-04-02T22:31:07.312Z,6.22
2023-04-02T22:34:07.133Z,6.30
2023-04-02T22:37:04.815Z,6.60
2023-04-02T22:40:02.840Z,6.88
2023-04-02T22:43:00.886Z,6.18
2023-04-02T22:45:58.710Z,6.32
2023-04-02T22:48:57.163Z,5.32
2023-04-02T22:51:54.895Z,5.13
2023-04-02T22:54:52.922Z,5.70
2023-04-02T22:57:50.658Z,5.18
2023-04-02T23:00:49.695Z,4.70
2023-04-02T23:03:47.730Z,4.03
2023-04-02T23:06:45.426Z,4.35
2023-04-02T23:09:43.257Z,3.95
2023-04-02T23:12:41.379Z,4.25
2023-04-02T23:15:39.077Z,3.58
2023-04-02T23:18:37.669Z,3.78
2023-04-02T23:21:35.452Z,3.60
2023-04-02T23:24:33.263Z,3.50
2023-04-02T23:27:31.903Z,3.22
2023-04-02T23:30:29.771Z,3.63
2023-04-02T23:33:27.800Z,2.90
2023-04-02T23:36:27.334Z,3.40
2023-04-02T23:39:25.184Z,2.90
2023-04-02T23:42:23.014Z,3.45
2023-04-02T23:45:21.136Z,3.42
2023-04-02T23:48:19.084Z,4.13
2023-04-02T23:51:17.468Z,3.38
2023-04-02T23:54:16.109Z,3.47
2023-04-02T23:57:13.959Z,3.00
